sensor_id;sensor_type;location;lat;lon;timestamp;pressure;altitude;pressure_sealevel;temperature;humidity
4576;BME280;2300;51.874;8.430;2023-01-25T00:00:21;102898.97;;;1.09;86.87
4576;BME280;2300;51.874;8.430;2023-01-25T00:02:48;102887.72;;;1.02;85.92
4576;BME280;2300;51.874;8.430;2023-01-25T00:05:14;102899.94;;;1.08;86.16
4576;BME280;2300;51.874;8.430;2023-01-25T00:07:41;102887.44;;;0.94;87.20
4576;BME280;2300;51.874;8.430;2023-01-25T00:10:08;102889.78;;;0.87;88.14
4576;BME280;2300;51.874;8.430;2023-01-25T00:12:35;102832.13;;;0.39;87.94
4576;BME280;2300;51.874;8.430;2023-01-25T00:15:01;102816.78;;;0.40;87.81
4576;BME280;2300;51.874;8.430;2023-01-25T00:17:29;102882.38;;;0.89;88.19
4576;BME280;2300;51.874;8.430;2023-01-25T00:19:56;102884.88;;;0.92;88.23
4576;BME280;2300;51.874;8.430;2023-01-25T00:22:22;102882.38;;;0.89;88.04
4576;BME280;2300;51.874;8.430;2023-01-25T00:24:48;102882.13;;;0.81;88.26
4576;BME280;2300;51.874;8.430;2023-01-25T00:27:15;102880.19;;;0.94;88.56
4576;BME280;2300;51.874;8.430;2023-01-25T00:29:41;102875.53;;;0.96;88.71
4576;BME280;2300;51.874;8.430;2023-01-25T00:35:14;102866.16;;;0.89;88.56
4576;BME280;2300;51.874;8.430;2023-01-25T00:37:42;102858.06;;;1.00;88.70
4576;BME280;2300;51.874;8.430;2023-01-25T00:40:10;102847.53;;;1.20;87.87
4576;BME280;2300;51.874;8.430;2023-01-25T00:42:37;102844.72;;;1.21;88.33
4576;BME280;2300;51.874;8.430;2023-01-25T00:45:05;102847.41;;;1.21;88.02
4576;BME280;2300;51.874;8.430;2023-01-25T00:47:31;102843.22;;;1.17;88.21
4576;BME280;2300;51.874;8.430;2023-01-25T00:49:58;102844.56;;;1.12;88.10
4576;BME280;2300;51.874;8.430;2023-01-25T00:52:25;102835.47;;;1.13;88.06
4576;BME280;2300;51.874;8.430;2023-01-25T00:54:52;102815.59;;;0.90;88.37
4576;BME280;2300;51.874;8.430;2023-01-25T00:57:19;102837.91;;;0.93;88.51
4576;BME280;2300;51.874;8.430;2023-01-25T00:59:45;102830.63;;;0.94;88.61
4576;BME280;2300;51.874;8.430;2023-01-25T01:02:12;102828.91;;;0.93;89.02
4576;BME280;2300;51.874;8.430;2023-01-25T01:04:38;102829.06;;;1.02;88.26
4576;BME280;2300;51.874;8.430;2023-01-25T01:07:05;102834.88;;;1.09;88.09
4576;BME280;2300;51.874;8.430;2023-01-25T01:09:33;102825.84;;;0.97;88.01
4576;BME280;2300;51.874;8.430;2023-01-25T01:11:59;102832.22;;;0.96;88.44
4576;BME280;2300;51.874;8.430;2023-01-25T01:14:26;102829.50;;;0.85;89.62
4576;BME280;2300;51.874;8.430;2023-01-25T01:16:52;102834.78;;;0.87;89.62
4576;BME280;2300;51.874;8.430;2023-01-25T01:19:19;102826.78;;;0.85;90.30
4576;BME280;2300;51.874;8.430;2023-01-25T01:21:45;102837.13;;;0.91;90.43
4576;BME280;2300;51.874;8.430;2023-01-25T01:24:12;102837.41;;;0.99;89.71
4576;BME280;2300;51.874;8.430;2023-01-25T01:26:39;102840.41;;;1.19;89.19
4576;BME280;2300;51.874;8.430;2023-01-25T01:29:06;102830.06;;;1.13;88.79
4576;BME280;2300;51.874;8.430;2023-01-25T01:31:32;102812.53;;;0.94;89.30
4576;BME280;2300;51.874;8.430;2023-01-25T01:33:59;102826.31;;;0.91;89.30
4576;BME280;2300;51.874;8.430;2023-01-25T01:36:28;102841.22;;;0.97;89.38
4576;BME280;2300;51.874;8.430;2023-01-25T01:38:56;102838.41;;;0.98;89.73
4576;BME280;2300;51.874;8.430;2023-01-25T01:41:23;102835.25;;;0.81;90.35
4576;BME280;2300;51.874;8.430;2023-01-25T01:43:51;102841.84;;;1.00;90.58
4576;BME280;2300;51.874;8.430;2023-01-25T01:46:22;102831.47;;;0.94;90.47
4576;BME280;2300;51.874;8.430;2023-01-25T01:48:53;102837.69;;;1.08;90.19
4576;BME280;2300;51.874;8.430;2023-01-25T01:51:23;102832.66;;;1.14;89.62
4576;BME280;2300;51.874;8.430;2023-01-25T01:53:53;102843.22;;;1.17;89.61
4576;BME280;2300;51.874;8.430;2023-01-25T01:56:26;102835.94;;;1.06;89.59
4576;BME280;2300;51.874;8.430;2023-01-25T01:58:57;102840.75;;;1.03;90.19
4576;BME280;2300;51.874;8.430;2023-01-25T02:01:24;102842.13;;;1.09;89.90
4576;BME280;2300;51.874;8.430;2023-01-25T02:03:50;102834.22;;;1.05;89.67
4576;BME280;2300;51.874;8.430;2023-01-25T02:06:24;102834.88;;;1.09;90.56
4576;BME280;2300;51.874;8.430;2023-01-25T02:08:52;102841.41;;;1.18;89.93
4576;BME280;2300;51.874;8.430;2023-01-25T02:11:19;102822.88;;;1.00;90.53
4576;BME280;2300;51.874;8.430;2023-01-25T02:13:47;102828.31;;;1.00;90.14
4576;BME280;2300;51.874;8.430;2023-01-25T02:16:19;102803.41;;;0.84;90.88
4576;BME280;2300;51.874;8.430;2023-01-25T02:18:47;102813.75;;;0.90;90.83
4576;BME280;2300;51.874;8.430;2023-01-25T02:21:14;102825.63;;;1.12;90.88
4576;BME280;2300;51.874;8.430;2023-01-25T02:23:44;102832.00;;;1.11;90.11
4576;BME280;2300;51.874;8.430;2023-01-25T02:26:16;102819.97;;;1.03;90.09
4576;BME280;2300;51.874;8.430;2023-01-25T02:28:47;102823.97;;;0.87;90.76
4576;BME280;2300;51.874;8.430;2023-01-25T02:31:14;102802.53;;;0.84;90.77
4576;BME280;2300;51.874;8.430;2023-01-25T02:33:41;102802.44;;;0.85;90.60
4576;BME280;2300;51.874;8.430;2023-01-25T02:36:18;102821.66;;;0.93;90.92
4576;BME280;2300;51.874;8.430;2023-01-25T02:38:49;102821.38;;;0.85;90.72
4576;BME280;2300;51.874;8.430;2023-01-25T02:41:22;102813.72;;;0.79;91.24
4576;BME280;2300;51.874;8.430;2023-01-25T02:43:49;102789.72;;;0.75;91.40
4576;BME280;2300;51.874;8.430;2023-01-25T02:46:20;102802.28;;;0.76;91.57
4576;BME280;2300;51.874;8.430;2023-01-25T02:48:50;102804.28;;;0.85;91.91
4576;BME280;2300;51.874;8.430;2023-01-25T02:51:16;102798.72;;;0.75;91.79
4576;BME280;2300;51.874;8.430;2023-01-25T02:53:43;102807.38;;;0.91;91.59
4576;BME280;2300;51.874;8.430;2023-01-25T02:56:09;102800.22;;;0.90;91.68
4576;BME280;2300;51.874;8.430;2023-01-25T02:58:37;102802.69;;;0.82;90.96
4576;BME280;2300;51.874;8.430;2023-01-25T03:01:04;102798.25;;;0.81;91.24
4576;BME280;2300;51.874;8.430;2023-01-25T03:03:30;102783.16;;;0.55;91.98
4576;BME280;2300;51.874;8.430;2023-01-25T03:05:56;102769.69;;;0.42;92.73
4576;BME280;2300;51.874;8.430;2023-01-25T03:08:23;102791.56;;;0.74;92.91
4576;BME280;2300;51.874;8.430;2023-01-25T03:10:49;102788.81;;;0.63;92.77
4576;BME280;2300;51.874;8.430;2023-01-25T03:13:17;102775.91;;;0.55;92.91
4576;BME280;2300;51.874;8.430;2023-01-25T03:15:45;102770.59;;;0.54;93.33
4576;BME280;2300;51.874;8.430;2023-01-25T03:18:11;102775.09;;;0.66;93.18
4576;BME280;2300;51.874;8.430;2023-01-25T03:20:37;102715.25;;;0.36;93.05
4576;BME280;2300;51.874;8.430;2023-01-25T03:23:04;102773.53;;;0.86;92.75
4576;BME280;2300;51.874;8.430;2023-01-25T03:25:30;102771.19;;;0.81;92.69
4576;BME280;2300;51.874;8.430;2023-01-25T03:27:57;102765.78;;;0.81;93.00
4576;BME280;2300;51.874;8.430;2023-01-25T03:30:24;102762.97;;;0.83;92.83
4576;BME280;2300;51.874;8.430;2023-01-25T03:32:51;102753.97;;;0.71;93.01
4576;BME280;2300;51.874;8.430;2023-01-25T03:35:18;102730.44;;;0.60;93.26
4576;BME280;2300;51.874;8.430;2023-01-25T03:37:44;102752.97;;;0.83;92.99
4576;BME280;2300;51.874;8.430;2023-01-25T03:40:11;102737.38;;;0.87;92.44
4576;BME280;2300;51.874;8.430;2023-01-25T03:42:37;102738.25;;;0.87;92.08
4576;BME280;2300;51.874;8.430;2023-01-25T03:45:05;102740.94;;;0.76;92.94
4576;BME280;2300;51.874;8.430;2023-01-25T03:47:31;102729.94;;;0.55;93.32
4576;BME280;2300;51.874;8.430;2023-01-25T03:49:59;102721.81;;;0.55;93.86
4576;BME280;2300;51.874;8.430;2023-01-25T03:52:26;102730.03;;;0.54;94.27
4576;BME280;2300;51.874;8.430;2023-01-25T03:54:54;102726.28;;;0.68;94.14
4576;BME280;2300;51.874;8.430;2023-01-25T03:57:20;102727.69;;;0.49;94.28
4576;BME280;2300;51.874;8.430;2023-01-25T03:59:47;102729.78;;;0.46;94.58
4576;BME280;2300;51.874;8.430;2023-01-25T04:02:13;102729.31;;;0.52;95.01
4576;BME280;2300;51.874;8.430;2023-01-25T04:04:39;102685.78;;;0.44;94.55
4576;BME280;2300;51.874;8.430;2023-01-25T04:07:07;102645.41;;;0.18;94.08
4576;BME280;2300;51.874;8.430;2023-01-25T04:09:34;102702.28;;;0.63;94.29
4576;BME280;2300;51.874;8.430;2023-01-25T04:12:00;102709.81;;;0.71;94.16
4576;BME280;2300;51.874;8.430;2023-01-25T04:14:26;102704.25;;;0.61;94.08
4576;BME280;2300;51.874;8.430;2023-01-25T04:16:53;102708.69;;;0.62;93.70
4576;BME280;2300;51.874;8.430;2023-01-25T04:19:19;102720.53;;;0.72;94.04
4576;BME280;2300;51.874;8.430;2023-01-25T04:21:46;102625.63;;;0.18;93.48
4576;BME280;2300;51.874;8.430;2023-01-25T04:24:14;102713.09;;;0.52;94.12
4576;BME280;2300;51.874;8.430;2023-01-25T04:26:40;102705.22;;;0.49;94.78
4576;BME280;2300;51.874;8.430;2023-01-25T04:29:06;102707.44;;;0.55;94.91
4576;BME280;2300;51.874;8.430;2023-01-25T04:31:33;102703.63;;;0.57;94.50
4576;BME280;2300;51.874;8.430;2023-01-25T04:33:59;102700.66;;;0.49;94.67
4576;BME280;2300;51.874;8.430;2023-01-25T04:36:26;102697.38;;;0.57;95.04
4576;BME280;2300;51.874;8.430;2023-01-25T04:38:52;102694.91;;;0.65;95.11
4576;BME280;2300;51.874;8.430;2023-01-25T04:41:20;102693.09;;;0.66;95.06
4576;BME280;2300;51.874;8.430;2023-01-25T04:43:51;102697.13;;;0.60;94.75
4576;BME280;2300;51.874;8.430;2023-01-25T04:46:17;102695.84;;;0.42;95.14
4576;BME280;2300;51.874;8.430;2023-01-25T04:48:43;102690.53;;;0.29;95.73
4576;BME280;2300;51.874;8.430;2023-01-25T04:51:10;102689.09;;;0.36;96.10
4576;BME280;2300;51.874;8.430;2023-01-25T04:53:37;102699.72;;;0.27;96.32
4576;BME280;2300;51.874;8.430;2023-01-25T04:56:04;102692.97;;;0.32;96.64
4576;BME280;2300;51.874;8.430;2023-01-25T04:58:32;102689.94;;;0.48;96.46
4576;BME280;2300;51.874;8.430;2023-01-25T05:00:59;102697.56;;;0.43;96.08
4576;BME280;2300;51.874;8.430;2023-01-25T05:03:26;102684.97;;;0.19;96.64
4576;BME280;2300;51.874;8.430;2023-01-25T05:05:53;102698.78;;;0.39;96.64
4576;BME280;2300;51.874;8.430;2023-01-25T05:08:20;102684.28;;;0.40;96.71
4576;BME280;2300;51.874;8.430;2023-01-25T05:10:46;102681.13;;;0.46;96.33
4576;BME280;2300;51.874;8.430;2023-01-25T05:13:12;102686.53;;;0.46;96.50
4576;BME280;2300;51.874;8.430;2023-01-25T05:15:40;102679.81;;;0.28;96.84
4576;BME280;2300;51.874;8.430;2023-01-25T05:18:07;102681.69;;;0.38;96.57
4576;BME280;2300;51.874;8.430;2023-01-25T05:20:33;102683.28;;;0.30;96.87
4576;BME280;2300;51.874;8.430;2023-01-25T05:23:00;102675.88;;;0.20;97.15
4576;BME280;2300;51.874;8.430;2023-01-25T05:25:26;102681.31;;;0.32;97.27
4576;BME280;2300;51.874;8.430;2023-01-25T05:28:09;102686.25;;;0.38;97.33
4576;BME280;2300;51.874;8.430;2023-01-25T05:30:36;102669.72;;;0.18;97.02
4576;BME280;2300;51.874;8.430;2023-01-25T05:33:04;102681.31;;;0.32;97.29
4576;BME280;2300;51.874;8.430;2023-01-25T05:35:30;102649.22;;;0.27;97.36
4576;BME280;2300;51.874;8.430;2023-01-25T05:37:57;102684.81;;;0.45;96.69
4576;BME280;2300;51.874;8.430;2023-01-25T05:40:23;102685.06;;;0.53;96.55
4576;BME280;2300;51.874;8.430;2023-01-25T05:42:54;102690.31;;;0.43;96.37
4576;BME280;2300;51.874;8.430;2023-01-25T05:45:20;102683.34;;;0.52;96.32
4576;BME280;2300;51.874;8.430;2023-01-25T05:47:51;102689.78;;;0.62;96.39
4576;BME280;2300;51.874;8.430;2023-01-25T05:50:19;102666.81;;;0.33;95.74
4576;BME280;2300;51.874;8.430;2023-01-25T05:52:45;102674.19;;;0.42;96.76
4576;BME280;2300;51.874;8.430;2023-01-25T05:55:12;102672.03;;;0.47;96.32
4576;BME280;2300;51.874;8.430;2023-01-25T05:57:38;102678.97;;;0.27;96.32
4576;BME280;2300;51.874;8.430;2023-01-25T06:00:06;102654.03;;;0.24;96.85
4576;BME280;2300;51.874;8.430;2023-01-25T06:02:32;102662.28;;;0.33;96.68
4576;BME280;2300;51.874;8.430;2023-01-25T06:04:59;102656.41;;;0.39;96.59
4576;BME280;2300;51.874;8.430;2023-01-25T06:07:26;102664.94;;;0.57;96.25
4576;BME280;2300;51.874;8.430;2023-01-25T06:09:53;102649.59;;;0.23;96.08
4576;BME280;2300;51.874;8.430;2023-01-25T06:12:20;102664.25;;;0.42;96.30
4576;BME280;2300;51.874;8.430;2023-01-25T06:14:46;102633.38;;;0.23;96.39
4576;BME280;2300;51.874;8.430;2023-01-25T06:17:13;102666.34;;;0.39;96.38
4576;BME280;2300;51.874;8.430;2023-01-25T06:19:39;102656.28;;;0.41;96.29
4576;BME280;2300;51.874;8.430;2023-01-25T06:22:06;102669.94;;;0.50;96.21
4576;BME280;2300;51.874;8.430;2023-01-25T06:24:34;102666.41;;;0.61;96.15
4576;BME280;2300;51.874;8.430;2023-01-25T06:27:01;102667.13;;;0.63;95.75
4576;BME280;2300;51.874;8.430;2023-01-25T06:29:27;102665.41;;;0.51;95.24
4576;BME280;2300;51.874;8.430;2023-01-25T06:31:54;102643.50;;;0.54;95.28
4576;BME280;2300;51.874;8.430;2023-01-25T06:34:21;102663.94;;;0.47;95.16
4576;BME280;2300;51.874;8.430;2023-01-25T06:36:48;102660.97;;;0.50;95.11
4576;BME280;2300;51.874;8.430;2023-01-25T06:39:15;102639.56;;;0.36;95.28
4576;BME280;2300;51.874;8.430;2023-01-25T06:41:43;102669.84;;;0.52;95.43
4576;BME280;2300;51.874;8.430;2023-01-25T06:44:09;102669.31;;;0.58;95.72
4576;BME280;2300;51.874;8.430;2023-01-25T06:46:36;102674.16;;;0.66;95.68
4576;BME280;2300;51.874;8.430;2023-01-25T06:49:02;102659.50;;;0.68;95.55
4576;BME280;2300;51.874;8.430;2023-01-25T06:51:29;102568.63;;;0.21;95.34
4576;BME280;2300;51.874;8.430;2023-01-25T06:53:55;102575.38;;;0.15;94.57
4576;BME280;2300;51.874;8.430;2023-01-25T06:56:22;102678.09;;;0.61;94.40
4576;BME280;2300;51.874;8.430;2023-01-25T06:58:50;102654.56;;;0.40;94.83
4576;BME280;2300;51.874;8.430;2023-01-25T07:01:18;102602.13;;;0.07;94.67
4576;BME280;2300;51.874;8.430;2023-01-25T07:03:47;102679.91;;;0.50;95.10
4576;BME280;2300;51.874;8.430;2023-01-25T07:06:13;102679.66;;;0.53;95.38
4576;BME280;2300;51.874;8.430;2023-01-25T07:08:40;102604.56;;;-0.01;95.07
4576;BME280;2300;51.874;8.430;2023-01-25T07:11:10;102677.78;;;0.31;95.36
4576;BME280;2300;51.874;8.430;2023-01-25T07:13:38;102674.94;;;0.33;95.67
4576;BME280;2300;51.874;8.430;2023-01-25T07:16:10;102673.09;;;0.33;95.58
4576;BME280;2300;51.874;8.430;2023-01-25T07:18:37;102627.88;;;0.00;95.75
4576;BME280;2300;51.874;8.430;2023-01-25T07:21:05;102671.00;;;0.26;95.82
4576;BME280;2300;51.874;8.430;2023-01-25T07:23:32;102663.34;;;0.19;96.09
4576;BME280;2300;51.874;8.430;2023-01-25T07:26:02;102657.59;;;0.00;96.59
4576;BME280;2300;51.874;8.430;2023-01-25T07:28:30;102588.94;;;-0.43;97.50
4576;BME280;2300;51.874;8.430;2023-01-25T07:31:03;102654.41;;;-0.05;97.42
4576;BME280;2300;51.874;8.430;2023-01-25T07:33:31;102655.41;;;-0.06;97.63
4576;BME280;2300;51.874;8.430;2023-01-25T07:35:58;102659.41;;;-0.11;97.67
4576;BME280;2300;51.874;8.430;2023-01-25T07:38:25;102657.84;;;-0.03;98.28
4576;BME280;2300;51.874;8.430;2023-01-25T07:40:51;102659.69;;;0.20;98.16
4576;BME280;2300;51.874;8.430;2023-01-25T07:43:18;102659.44;;;0.24;97.10
4576;BME280;2300;51.874;8.430;2023-01-25T07:45:44;102655.03;;;0.34;96.67
4576;BME280;2300;51.874;8.430;2023-01-25T07:48:13;102658.19;;;0.28;96.43
4576;BME280;2300;51.874;8.430;2023-01-25T07:50:41;102653.91;;;0.25;96.58
4576;BME280;2300;51.874;8.430;2023-01-25T07:53:11;102655.63;;;0.26;96.72
4576;BME280;2300;51.874;8.430;2023-01-25T07:55:37;102652.78;;;0.28;96.65
4576;BME280;2300;51.874;8.430;2023-01-25T07:58:04;102657.97;;;0.31;96.45
4576;BME280;2300;51.874;8.430;2023-01-25T08:00:31;102641.97;;;0.28;96.37
4576;BME280;2300;51.874;8.430;2023-01-25T08:02:57;102647.34;;;0.16;96.47
4576;BME280;2300;51.874;8.430;2023-01-25T08:05:23;102646.97;;;0.10;96.72
4576;BME280;2300;51.874;8.430;2023-01-25T08:07:51;102646.97;;;0.10;97.21
4576;BME280;2300;51.874;8.430;2023-01-25T08:10:18;102648.19;;;0.06;97.01
4576;BME280;2300;51.874;8.430;2023-01-25T08:12:45;102648.56;;;0.12;97.21
4576;BME280;2300;51.874;8.430;2023-01-25T08:15:12;102627.66;;;0.03;97.08
4576;BME280;2300;51.874;8.430;2023-01-25T08:17:39;102648.09;;;0.18;97.07
4576;BME280;2300;51.874;8.430;2023-01-25T08:20:07;102647.63;;;0.25;96.88
4576;BME280;2300;51.874;8.430;2023-01-25T08:22:33;102648.66;;;0.35;96.96
4576;BME280;2300;51.874;8.430;2023-01-25T08:25:01;102655.63;;;0.37;96.24
4576;BME280;2300;51.874;8.430;2023-01-25T08:27:28;102655.78;;;0.36;95.79
4576;BME280;2300;51.874;8.430;2023-01-25T08:29:54;102648.03;;;0.31;96.15
4576;BME280;2300;51.874;8.430;2023-01-25T08:32:21;102642.69;;;0.18;95.92
4576;BME280;2300;51.874;8.430;2023-01-25T08:34:47;102637.75;;;0.12;95.80
4576;BME280;2300;51.874;8.430;2023-01-25T08:37:14;102628.94;;;0.10;95.97
4576;BME280;2300;51.874;8.430;2023-01-25T08:39:40;102630.41;;;0.14;96.15
4576;BME280;2300;51.874;8.430;2023-01-25T08:42:08;102630.88;;;0.08;96.13
4576;BME280;2300;51.874;8.430;2023-01-25T08:44:35;102624.00;;;0.04;96.39
4576;BME280;2300;51.874;8.430;2023-01-25T08:47:01;102632.06;;;-0.07;96.55
4576;BME280;2300;51.874;8.430;2023-01-25T08:49:28;102629.41;;;0.04;96.94
4576;BME280;2300;51.874;8.430;2023-01-25T08:51:55;102624.34;;;0.11;96.25
4576;BME280;2300;51.874;8.430;2023-01-25T08:54:22;102615.94;;;0.15;96.25
4576;BME280;2300;51.874;8.430;2023-01-25T08:56:50;102628.22;;;0.19;95.78
4576;BME280;2300;51.874;8.430;2023-01-25T08:59:18;102613.72;;;0.20;95.77
4576;BME280;2300;51.874;8.430;2023-01-25T09:01:45;102621.34;;;0.15;95.53
4576;BME280;2300;51.874;8.430;2023-01-25T09:04:11;102590.31;;;-0.03;95.10
4576;BME280;2300;51.874;8.430;2023-01-25T09:06:38;102623.25;;;0.02;95.46
4576;BME280;2300;51.874;8.430;2023-01-25T09:09:04;102620.97;;;0.20;95.60
4576;BME280;2300;51.874;8.430;2023-01-25T09:11:33;102616.41;;;0.09;95.19
4576;BME280;2300;51.874;8.430;2023-01-25T09:14:01;102591.88;;;-0.11;95.46
4576;BME280;2300;51.874;8.430;2023-01-25T09:16:29;102611.88;;;-0.14;95.57
4576;BME280;2300;51.874;8.430;2023-01-25T09:18:57;102611.63;;;-0.22;95.65
4576;BME280;2300;51.874;8.430;2023-01-25T09:21:25;102600.81;;;-0.22;95.40
4576;BME280;2300;51.874;8.430;2023-01-25T09:23:52;102608.09;;;-0.11;95.51
4576;BME280;2300;51.874;8.430;2023-01-25T09:26:19;102605.56;;;-0.02;95.62
4576;BME280;2300;51.874;8.430;2023-01-25T09:28:47;102613.19;;;0.04;95.20
4576;BME280;2300;51.874;8.430;2023-01-25T09:31:14;102601.59;;;0.26;94.97
4576;BME280;2300;51.874;8.430;2023-01-25T09:33:42;102599.44;;;0.07;94.44
4576;BME280;2300;51.874;8.430;2023-01-25T09:36:09;102605.31;;;0.01;94.50
4576;BME280;2300;51.874;8.430;2023-01-25T09:38:36;102594.75;;;-0.02;94.82
4576;BME280;2300;51.874;8.430;2023-01-25T09:41:21;102586.78;;;0.08;94.87
4576;BME280;2300;51.874;8.430;2023-01-25T09:44:00;102591.44;;;-0.05;94.97
4576;BME280;2300;51.874;8.430;2023-01-25T09:46:38;102578.06;;;0.04;94.74
4576;BME280;2300;51.874;8.430;2023-01-25T09:49:18;102584.66;;;0.00;94.32
4576;BME280;2300;51.874;8.430;2023-01-25T09:52:05;102587.72;;;-0.04;94.33
4576;BME280;2300;51.874;8.430;2023-01-25T09:54:39;102584.59;;;-0.22;94.60
4576;BME280;2300;51.874;8.430;2023-01-25T09:57:10;102588.03;;;-0.20;94.81
4576;BME280;2300;51.874;8.430;2023-01-25T09:59:40;102560.06;;;-0.19;95.30
4576;BME280;2300;51.874;8.430;2023-01-25T10:02:16;102573.34;;;-0.05;94.88
4576;BME280;2300;51.874;8.430;2023-01-25T10:04:48;102584.06;;;0.08;94.29
4576;BME280;2300;51.874;8.430;2023-01-25T10:07:18;102583.47;;;0.04;94.48
4576;BME280;2300;51.874;8.430;2023-01-25T10:09:52;102575.38;;;0.15;93.74
4576;BME280;2300;51.874;8.430;2023-01-25T10:12:24;102570.13;;;-0.21;93.70
4576;BME280;2300;51.874;8.430;2023-01-25T10:14:51;102559.44;;;-0.46;94.03
4576;BME280;2300;51.874;8.430;2023-01-25T10:17:25;102570.91;;;-0.43;94.97
4576;BME280;2300;51.874;8.430;2023-01-25T10:20:05;102567.59;;;-0.35;95.03
4576;BME280;2300;51.874;8.430;2023-01-25T10:22:36;102561.38;;;-0.25;94.92
4576;BME280;2300;51.874;8.430;2023-01-25T10:25:23;102561.63;;;-0.28;94.62
4576;BME280;2300;51.874;8.430;2023-01-25T10:28:12;102565.75;;;-0.11;94.54
4576;BME280;2300;51.874;8.430;2023-01-25T10:30:47;102556.16;;;-0.04;94.43
4576;BME280;2300;51.874;8.430;2023-01-25T10:33:17;102537.22;;;-0.15;93.68
4576;BME280;2300;51.874;8.430;2023-01-25T10:35:48;102550.63;;;-0.13;93.30
4576;BME280;2300;51.874;8.430;2023-01-25T10:38:19;102533.03;;;-0.19;93.40
4576;BME280;2300;51.874;8.430;2023-01-25T10:40:50;102545.06;;;-0.23;93.59
4576;BME280;2300;51.874;8.430;2023-01-25T10:43:20;102531.38;;;-0.44;93.62
4576;BME280;2300;51.874;8.430;2023-01-25T10:45:48;102534.13;;;-0.56;94.16
4576;BME280;2300;51.874;8.430;2023-01-25T10:48:18;102528.47;;;-0.65;94.88
4576;BME280;2300;51.874;8.430;2023-01-25T10:50:51;102525.41;;;-0.60;95.37
4576;BME280;2300;51.874;8.430;2023-01-25T10:53:36;102525.16;;;-0.33;95.48
4576;BME280;2300;51.874;8.430;2023-01-25T10:56:16;102515.09;;;-0.31;95.69
4576;BME280;2300;51.874;8.430;2023-01-25T10:58:46;102504.53;;;-0.34;95.40
4576;BME280;2300;51.874;8.430;2023-01-25T11:01:24;102511.44;;;-0.19;94.83
4576;BME280;2300;51.874;8.430;2023-01-25T11:03:51;102509.50;;;-0.17;94.73
4576;BME280;2300;51.874;8.430;2023-01-25T11:06:30;102507.50;;;-0.15;93.94
4576;BME280;2300;51.874;8.430;2023-01-25T11:08:57;102507.50;;;-0.15;93.79
4576;BME280;2300;51.874;8.430;2023-01-25T11:11:25;102489.09;;;-0.21;93.60
4576;BME280;2300;51.874;8.430;2023-01-25T11:13:52;102499.16;;;-0.23;93.53
4576;BME280;2300;51.874;8.430;2023-01-25T11:16:29;102487.09;;;-0.41;94.10
4576;BME280;2300;51.874;8.430;2023-01-25T11:18:57;102487.56;;;-0.47;94.40
4576;BME280;2300;51.874;8.430;2023-01-25T11:21:25;102482.22;;;-0.60;94.78
4576;BME280;2300;51.874;8.430;2023-01-25T11:24:02;102459.78;;;-0.60;94.63
4576;BME280;2300;51.874;8.430;2023-01-25T11:26:29;102471.59;;;-0.50;94.70
4576;BME280;2300;51.874;8.430;2023-01-25T11:29:09;102454.44;;;-0.38;95.28
4576;BME280;2300;51.874;8.430;2023-01-25T11:31:36;102452.50;;;-0.14;94.64
4576;BME280;2300;51.874;8.430;2023-01-25T11:34:08;102451.28;;;-0.21;94.16
4576;BME280;2300;51.874;8.430;2023-01-25T11:36:41;102456.66;;;-0.32;94.02
4576;BME280;2300;51.874;8.430;2023-01-25T11:39:22;102452.59;;;-0.38;93.93
4576;BME280;2300;51.874;8.430;2023-01-25T11:42:05;102446.59;;;-0.30;94.08
4576;BME280;2300;51.874;8.430;2023-01-25T11:44:53;102439.44;;;-0.53;93.55
4576;BME280;2300;51.874;8.430;2023-01-25T11:47:38;102429.53;;;-0.77;94.22
4576;BME280;2300;51.874;8.430;2023-01-25T11:50:11;102416.59;;;-0.95;94.66
4576;BME280;2300;51.874;8.430;2023-01-25T11:52:51;102429.03;;;-0.82;95.50
4576;BME280;2300;51.874;8.430;2023-01-25T11:55:25;102401.56;;;-0.76;95.84
4576;BME280;2300;51.874;8.430;2023-01-25T11:58:16;102406.25;;;-0.67;95.50
4576;BME280;2300;51.874;8.430;2023-01-25T12:01:01;102393.38;;;-0.74;95.44
4576;BME280;2300;51.874;8.430;2023-01-25T12:04:02;102396.47;;;-0.56;95.40
4576;BME280;2300;51.874;8.430;2023-01-25T12:06:40;102383.81;;;-0.67;95.10
4576;BME280;2300;51.874;8.430;2023-01-25T12:09:23;102367.19;;;-0.96;95.56
4576;BME280;2300;51.874;8.430;2023-01-25T12:12:04;102376.66;;;-0.90;95.64
4576;BME280;2300;51.874;8.430;2023-01-25T12:14:44;102370.34;;;-1.02;95.78
4576;BME280;2300;51.874;8.430;2023-01-25T12:17:22;102360.53;;;-1.03;96.38
4576;BME280;2300;51.874;8.430;2023-01-25T12:20:16;102358.84;;;-0.93;96.55
4576;BME280;2300;51.874;8.430;2023-01-25T12:23:06;102357.94;;;-0.70;96.77
4576;BME280;2300;51.874;8.430;2023-01-25T12:25:43;102355.25;;;-0.70;96.84
4576;BME280;2300;51.874;8.430;2023-01-25T12:28:18;102355.25;;;-0.58;96.82
4576;BME280;2300;51.874;8.430;2023-01-25T12:30:50;102338.06;;;-0.46;96.52
4576;BME280;2300;51.874;8.430;2023-01-25T12:33:20;102332.69;;;-0.46;96.10
4576;BME280;2300;51.874;8.430;2023-01-25T12:35:53;102313.31;;;-0.62;95.97
4576;BME280;2300;51.874;8.430;2023-01-25T12:38:26;102327.75;;;-0.75;95.64
4576;BME280;2300;51.874;8.430;2023-01-25T12:40:58;102307.34;;;-1.01;96.05
4576;BME280;2300;51.874;8.430;2023-01-25T12:43:30;102308.44;;;-1.03;97.04
4576;BME280;2300;51.874;8.430;2023-01-25T12:46:10;102281.59;;;-1.05;97.20
4576;BME280;2300;51.874;8.430;2023-01-25T12:48:42;102294.59;;;-0.88;97.20
4576;BME280;2300;51.874;8.430;2023-01-25T12:51:12;102289.84;;;-0.84;97.16
4576;BME280;2300;51.874;8.430;2023-01-25T12:53:43;102282.69;;;-0.96;97.04
4576;BME280;2300;51.874;8.430;2023-01-25T12:56:20;102252.75;;;-1.16;97.77
4576;BME280;2300;51.874;8.430;2023-01-25T12:58:55;102271.06;;;-0.97;97.85
4576;BME280;2300;51.874;8.430;2023-01-25T13:01:31;102270.09;;;-0.85;98.06
4576;BME280;2300;51.874;8.430;2023-01-25T13:04:09;102261.41;;;-0.66;98.03
4576;BME280;2300;51.874;8.430;2023-01-25T13:06:43;102253.91;;;-0.51;96.92
4576;BME280;2300;51.874;8.430;2023-01-25T13:09:14;102253.19;;;-0.65;96.39
4576;BME280;2300;51.874;8.430;2023-01-25T13:11:45;102246.44;;;-0.59;96.11
4576;BME280;2300;51.874;8.430;2023-01-25T13:14:28;102237.84;;;-0.75;95.91
4576;BME280;2300;51.874;8.430;2023-01-25T13:17:21;102229.88;;;-0.77;95.76
4576;BME280;2300;51.874;8.430;2023-01-25T13:19:48;102225.47;;;-0.78;95.84
4576;BME280;2300;51.874;8.430;2023-01-25T13:22:54;102235.00;;;-0.96;95.68
4576;BME280;2300;51.874;8.430;2023-01-25T13:25:23;102196.16;;;-1.04;96.20
4576;BME280;2300;51.874;8.430;2023-01-25T13:27:50;102227.91;;;-0.75;96.37
4576;BME280;2300;51.874;8.430;2023-01-25T13:30:29;102235.28;;;-0.66;96.13
4576;BME280;2300;51.874;8.430;2023-01-25T13:32:59;102220.69;;;-0.52;95.39